Aurora, Minnesota
Current Conditions -  °F | °C
As of 5:11 AM on Monday 22 Dec 2014 (Local Time) from KEVM Reporting Station
Haze Haze  
Wind Chill: 26°   Ceiling: 300
Heat Index: 32°   Visibility: 3mi
Dew Point: 32°   Wind: 7mph
Humidity: 100%   Direction: 150°SSE
Pressure: 29.68"   Gusts: NA
Location:  47.53°N, 92.24°W
Report Text: KEVM 221111Z AUTO 15006KT 3SM BR OVC003 00/00 A2968 RMK AO2
Loading
Personal Weather Stations






























Interactive Weather Map New forecast layout! Learn more

10-Day Weather Forecast

Advertisements
Track Severe Weather on mobile